Observation data for Aspermont on 10/14/2019      Previous  Date  Next       Current Mesonet Observations  Soil Data  Daily Summary Page  Observations in Plain Language
KASR 140500Z 17008KT 20/08 A2993 RMK A01 T01980076  RH  046%=      5-min Rain = 0
KASR 140505Z 17008KT 20/08 A2992 RMK A01 T01970076  RH  046%=      5-min Rain = 0
KASR 140510Z 17007KT 20/08 A2993 RMK A01 T01960075  RH  046%=      5-min Rain = 0
KASR 140515Z 17007KT 20/08 A2993 RMK A01 T01960075  RH  046%=      5-min Rain = 0
KASR 140520Z 17006KT 20/08 A2993 RMK A01 T01950075  RH  046%=      5-min Rain = 0
KASR 140525Z 18006KT 19/08 A2993 RMK A01 T01920076  RH  047%=      5-min Rain = 0
KASR 140530Z 18006KT 19/08 A2993 RMK A01 T01900076  RH  048%=      5-min Rain = 0
KASR 140535Z 17007KT 19/08 A2993 RMK A01 T01880076  RH  049%=      5-min Rain = 0
KASR 140540Z 17007KT 19/08 A2993 RMK A01 T01890075  RH  048%=      5-min Rain = 0
KASR 140545Z 17007KT 19/08 A2993 RMK A01 T01900075  RH  048%=      5-min Rain = 0
KASR 140550Z 18007KT 19/08 A2993 RMK A01 T01900075  RH  048%=      5-min Rain = 0
KASR 140555Z 18007KT 19/08 A2993 RMK A01 T01900075  RH  048%=      5-min Rain = 0
KASR 140600Z 19006KT 19/08 A2993 RMK A01 T01880075  RH  048%=      5-min Rain = 0
KASR 140605Z 18006KT 19/08 A2993 RMK A01 T01870075  RH  049%=      5-min Rain = 0
KASR 140610Z 18006KT 19/08 A2993 RMK A01 T01860075  RH  049%=      5-min Rain = 0
KASR 140615Z 18006KT 19/08 A2993 RMK A01 T01860075  RH  049%=      5-min Rain = 0
KASR 140620Z 20005KT 19/08 A2993 RMK A01 T01850075  RH  049%=      5-min Rain = 0
KASR 140625Z 25004KT 18/08 A2993 RMK A01 T01840075  RH  050%=      5-min Rain = 0
KASR 140630Z 24005KT 18/08 A2994 RMK A01 T01810075  RH  051%=      5-min Rain = 0
KASR 140635Z 20005KT 18/08 A2993 RMK A01 T01810076  RH  051%=      5-min Rain = 0
KASR 140640Z 21004KT 18/08 A2993 RMK A01 T01800077  RH  052%=      5-min Rain = 0
KASR 140645Z 21004KT 18/08 A2993 RMK A01 T01800077  RH  052%=      5-min Rain = 0
KASR 140650Z 19006KT 18/08 A2993 RMK A01 T01780077  RH  052%=      5-min Rain = 0
KASR 140655Z 19006KT 18/08 A2993 RMK A01 T01790076  RH  052%=      5-min Rain = 0
KASR 140700Z 21004KT 18/08 A2993 RMK A01 T01810076  RH  051%=      5-min Rain = 0
KASR 140705Z 22003KT 18/08 A2993 RMK A01 T01810075  RH  050%=      5-min Rain = 0
KASR 140710Z 18005KT 18/08 A2993 RMK A01 T01790076  RH  052%=      5-min Rain = 0
KASR 140715Z 17006KT 18/08 A2993 RMK A01 T01750076  RH  053%=      5-min Rain = 0
KASR 140720Z 17005KT 18/08 A2993 RMK A01 T01750076  RH  053%=      5-min Rain = 0
KASR 140725Z 18006KT 18/08 A2993 RMK A01 T01760076  RH  053%=      5-min Rain = 0
KASR 140730Z 19004KT 17/08 A2993 RMK A01 T01740078  RH  054%=      5-min Rain = 0
KASR 140735Z 19002KT 17/08 A2993 RMK A01 T01720078  RH  054%=      5-min Rain = 0
KASR 140740Z 17003KT 17/08 A2993 RMK A01 T01700077  RH  055%=      5-min Rain = 0
KASR 140745Z 16006KT 17/08 A2992 RMK A01 T01690076  RH  055%=      5-min Rain = 0
KASR 140750Z 16007KT 17/08 A2992 RMK A01 T01730075  RH  053%=      5-min Rain = 0
KASR 140755Z 17006KT 18/08 A2992 RMK A01 T01770075  RH  052%=      5-min Rain = 0
KASR 140800Z 17007KT 18/08 A2992 RMK A01 T01790075  RH  051%=      5-min Rain = 0
KASR 140805Z 16007KT 18/08 A2992 RMK A01 T01790075  RH  051%=      5-min Rain = 0
KASR 140810Z 16007KT 18/08 A2992 RMK A01 T01790075  RH  051%=      5-min Rain = 0
KASR 140815Z 15006KT 18/08 A2992 RMK A01 T01780075  RH  052%=      5-min Rain = 0
KASR 140820Z 15006KT 18/08 A2992 RMK A01 T01760076  RH  053%=      5-min Rain = 0
KASR 140825Z 15006KT 17/08 A2992 RMK A01 T01740078  RH  054%=      5-min Rain = 0
KASR 140830Z 15006KT 17/08 A2992 RMK A01 T01740079  RH  054%=      5-min Rain = 0
KASR 140835Z 15005KT 17/08 A2992 RMK A01 T01730079  RH  055%=      5-min Rain = 0
KASR 140840Z 15005KT 17/08 A2992 RMK A01 T01730079  RH  055%=      5-min Rain = 0
KASR 140845Z 15005KT 17/08 A2992 RMK A01 T01730078  RH  054%=      5-min Rain = 0
KASR 140850Z 15005KT 17/08 A2992 RMK A01 T01730077  RH  054%=      5-min Rain = 0
KASR 140855Z 15004KT 17/08 A2992 RMK A01 T01730077  RH  054%=      5-min Rain = 0
KASR 140900Z 15003KT 17/08 A2992 RMK A01 T01720078  RH  055%=      5-min Rain = 0
KASR 140905Z 15004KT 17/08 A2991 RMK A01 T01710078  RH  055%=      5-min Rain = 0
KASR 140910Z 15005KT 17/08 A2992 RMK A01 T01700078  RH  055%=      5-min Rain = 0
KASR 140915Z 15005KT 17/08 A2991 RMK A01 T01700077  RH  055%=      5-min Rain = 0
KASR 140920Z 16004KT 17/08 A2991 RMK A01 T01690078  RH  056%=      5-min Rain = 0
KASR 140925Z 16004KT 17/08 A2991 RMK A01 T01680078  RH  056%=      5-min Rain = 0
KASR 140930Z 16003KT 17/08 A2991 RMK A01 T01690078  RH  056%=      5-min Rain = 0
KASR 140935Z 16001KT 17/08 A2991 RMK A01 T01670080  RH  057%=      5-min Rain = 0
KASR 140940Z 16001KT 17/08 A2991 RMK A01 T01650081  RH  058%=      5-min Rain = 0
KASR 140945Z 17002KT 16/08 A2991 RMK A01 T01610081  RH  060%=      5-min Rain = 0
KASR 140950Z 16004KT 16/08 A2991 RMK A01 T01600081  RH  060%=      5-min Rain = 0
KASR 140955Z 16005KT 16/08 A2991 RMK A01 T01610082  RH  061%=      5-min Rain = 0
KASR 141000Z 16006KT 16/08 A2991 RMK A01 T01620081  RH  059%=      5-min Rain = 0
KASR 141005Z 16005KT 17/08 A2991 RMK A01 T01650080  RH  058%=      5-min Rain = 0
KASR 141010Z 16006KT 17/08 A2991 RMK A01 T01670079  RH  057%=      5-min Rain = 0
KASR 141015Z 15006KT 17/08 A2992 RMK A01 T01690079  RH  056%=      5-min Rain = 0
KASR 141020Z 15006KT 17/08 A2991 RMK A01 T01700079  RH  056%=      5-min Rain = 0
KASR 141025Z 16006KT 17/08 A2992 RMK A01 T01700080  RH  056%=      5-min Rain = 0
KASR 141030Z 16007KT 17/08 A2992 RMK A01 T01690080  RH  056%=      5-min Rain = 0
KASR 141035Z 16007KT 17/08 A2992 RMK A01 T01700079  RH  056%=      5-min Rain = 0
KASR 141040Z 16007KT 17/08 A2992 RMK A01 T01700079  RH  056%=      5-min Rain = 0
KASR 141045Z 16006KT 17/08 A2992 RMK A01 T01690079  RH  056%=      5-min Rain = 0
KASR 141050Z 16006KT 17/08 A2992 RMK A01 T01670079  RH  057%=      5-min Rain = 0
KASR 141055Z 16007KT 17/08 A2992 RMK A01 T01650079  RH  058%=      5-min Rain = 0
KASR 141100Z 16007KT 17/08 A2992 RMK A01 T01650078  RH  057%=      5-min Rain = 0
KASR 141105Z 16007KT 17/08 A2992 RMK A01 T01660078  RH  057%=      5-min Rain = 0
KASR 141110Z 16006KT 17/08 A2992 RMK A01 T01660078  RH  057%=      5-min Rain = 0
KASR 141115Z 16006KT 16/08 A2992 RMK A01 T01640079  RH  058%=      5-min Rain = 0
KASR 141120Z 16007KT 16/08 A2992 RMK A01 T01630079  RH  058%=      5-min Rain = 0
KASR 141125Z 16006KT 16/08 A2992 RMK A01 T01620078  RH  058%=      5-min Rain = 0
KASR 141130Z 16006KT 16/08 A2992 RMK A01 T01620079  RH  059%=      5-min Rain = 0
KASR 141135Z 16007KT 16/08 A2993 RMK A01 T01590079  RH  060%=      5-min Rain = 0
KASR 141140Z 17008KT 16/08 A2993 RMK A01 T01600079  RH  060%=      5-min Rain = 0
KASR 141145Z 17007KT 16/08 A2993 RMK A01 T01610080  RH  060%=      5-min Rain = 0
KASR 141150Z 17007KT 16/08 A2994 RMK A01 T01600080  RH  060%=      5-min Rain = 0
KASR 141155Z 17007KT 16/08 A2994 RMK A01 T01590080  RH  060%=      5-min Rain = 0
KASR 141200Z 17007KT 16/08 A2994 RMK A01 T01580081  RH  061%=      5-min Rain = 0
KASR 141205Z 17008KT 16/08 A2994 RMK A01 T01580081  RH  061%=      5-min Rain = 0
KASR 141210Z 17008KT 16/08 A2994 RMK A01 T01600081  RH  060%=      5-min Rain = 0
KASR 141215Z 17008KT 16/08 A2994 RMK A01 T01630081  RH  059%=      5-min Rain = 0
KASR 141220Z 17008KT 16/08 A2994 RMK A01 T01640081  RH  059%=      5-min Rain = 0
KASR 141225Z 17009KT 16/08 A2994 RMK A01 T01640081  RH  059%=      5-min Rain = 0
KASR 141230Z 16008KT 16/08 A2994 RMK A01 T01640081  RH  059%=      5-min Rain = 0
KASR 141235Z 17006KT 16/08 A2994 RMK A01 T01630081  RH  059%=      5-min Rain = 0
KASR 141240Z 18004KT 16/08 A2995 RMK A01 T01620081  RH  060%=      5-min Rain = 0
KASR 141245Z 20004KT 16/08 A2995 RMK A01 T01600082  RH  060%=      5-min Rain = 0
KASR 141250Z 17005KT 16/08 A2994 RMK A01 T01580083  RH  062%=      5-min Rain = 0
KASR 141255Z 19004KT 16/08 A2995 RMK A01 T01580083  RH  062%=      5-min Rain = 0
KASR 141300Z 21003KT 16/08 A2995 RMK A01 T01580083  RH  062%=      5-min Rain = 0
KASR 141305Z 22003KT 16/08 A2995 RMK A01 T01590082  RH  061%=      5-min Rain = 0
KASR 141310Z 18004KT 16/08 A2995 RMK A01 T01590084  RH  062%=      5-min Rain = 0
KASR 141315Z 17006KT 16/09 A2995 RMK A01 T01580085  RH  063%=      5-min Rain = 0
KASR 141320Z 17007KT 16/08 A2995 RMK A01 T01590084  RH  062%=      5-min Rain = 0
KASR 141325Z 17006KT 16/08 A2995 RMK A01 T01620084  RH  061%=      5-min Rain = 0
KASR 141330Z 18005KT 16/09 A2996 RMK A01 T01640085  RH  061%=      5-min Rain = 0
KASR 141335Z 20005KT 17/09 A2996 RMK A01 T01650086  RH  061%=      5-min Rain = 0
KASR 141340Z 17007KT 17/09 A2995 RMK A01 T01660087  RH  061%=      5-min Rain = 0
KASR 141345Z 17007KT 17/09 A2995 RMK A01 T01680087  RH  060%=      5-min Rain = 0
KASR 141350Z 18007KT 17/09 A2995 RMK A01 T01710086  RH  058%=      5-min Rain = 0
KASR 141355Z 18008KT 18/09 A2995 RMK A01 T01750086  RH  056%=      5-min Rain = 0
KASR 141400Z 19006KT 18/09 A2995 RMK A01 T01780086  RH  056%=      5-min Rain = 0
KASR 141405Z 26004KT 18/09 A2996 RMK A01 T01800087  RH  055%=      5-min Rain = 0
KASR 141410Z 22004KT 18/09 A2996 RMK A01 T01800087  RH  055%=      5-min Rain = 0
KASR 141415Z 28003KT 18/09 A2996 RMK A01 T01820089  RH  055%=      5-min Rain = 0
KASR 141420Z 27002KT 18/09 A2997 RMK A01 T01830089  RH  055%=      5-min Rain = 0
KASR 141425Z 29003KT 19/09 A2997 RMK A01 T01850091  RH  055%=      5-min Rain = 0
KASR 141430Z 21004KT 19/09 A2998 RMK A01 T01860092  RH  055%=      5-min Rain = 0
KASR 141435Z 20004KT 19/09 A2998 RMK A01 T01900093  RH  054%=      5-min Rain = 0
KASR 141440Z 23004KT 19/09 A2998 RMK A01 T01920094  RH  054%=      5-min Rain = 0
KASR 141445Z 21005KT 20/09 A2999 RMK A01 T01950094  RH  053%=      5-min Rain = 0
KASR 141450Z 21007KT 20/09 A2999 RMK A01 T01990094  RH  052%=      5-min Rain = 0
KASR 141455Z 20008KT 20/09 A2999 RMK A01 T02020094  RH  051%=      5-min Rain = 0
KASR 141500Z 20008KT 21/10 A2998 RMK A01 T02060095  RH  050%=      5-min Rain = 0
KASR 141505Z 19008KT 21/10 A2998 RMK A01 T02070096  RH  050%=      5-min Rain = 0
KASR 141510Z 20009KT 21/10 A2998 RMK A01 T02090097  RH  049%=      5-min Rain = 0
KASR 141515Z 20008KT 21/10 A2998 RMK A01 T02140099  RH  049%=      5-min Rain = 0
KASR 141520Z 20009KT 22/10 A2998 RMK A01 T02160100  RH  048%=      5-min Rain = 0
KASR 141525Z 20010G15KT 22/10 A2998 RMK A01 T02200100  RH  047%=      5-min Rain = 0
KASR 141530Z 21008G13KT 23/10 A2998 RMK A01 T02260102  RH  046%=      5-min Rain = 0
KASR 141535Z 21010KT 23/10 A2998 RMK A01 T02310102  RH  045%=      5-min Rain = 0
KASR 141540Z 22010KT 23/10 A2998 RMK A01 T02320100  RH  044%=      5-min Rain = 0
KASR 141545Z 22010KT 23/10 A2998 RMK A01 T02320100  RH  044%=      5-min Rain = 0
KASR 141550Z 22009KT 23/10 A2998 RMK A01 T02340102  RH  044%=      5-min Rain = 0
KASR 141555Z 21011G16KT 24/10 A2997 RMK A01 T02370102  RH  043%=      5-min Rain = 0
KASR 141600Z 21010KT 24/10 A2998 RMK A01 T02350102  RH  044%=      5-min Rain = 0
KASR 141605Z 20010KT 24/10 A2998 RMK A01 T02380103  RH  043%=      5-min Rain = 0
KASR 141610Z 19010KT 24/10 A2998 RMK A01 T02420104  RH  042%=      5-min Rain = 0
KASR 141615Z 20010KT 25/10 A2997 RMK A01 T02470103  RH  041%=      5-min Rain = 0
KASR 141620Z 20011KT 25/10 A2997 RMK A01 T02460103  RH  041%=      5-min Rain = 0
KASR 141625Z 21010KT 25/10 A2997 RMK A01 T02480104  RH  041%=      5-min Rain = 0
KASR 141630Z 21011G16KT 25/11 A2997 RMK A01 T02540106  RH  040%=      5-min Rain = 0
KASR 141635Z 20010KT 26/11 A2997 RMK A01 T02570106  RH  039%=      5-min Rain = 0
KASR 141640Z 19011KT 26/11 A2997 RMK A01 T02550106  RH  040%=      5-min Rain = 0
KASR 141645Z 19010KT 26/11 A2997 RMK A01 T02580108  RH  040%=      5-min Rain = 0
KASR 141650Z 19009KT 26/11 A2996 RMK A01 T02640110  RH  039%=      5-min Rain = 0
KASR 141655Z 20009G14KT 27/11 A2996 RMK A01 T02660111  RH  039%=      5-min Rain = 0
KASR 141700Z 20010KT 27/11 A2996 RMK A01 T02700112  RH  038%=      5-min Rain = 0
KASR 141705Z 19010KT 27/11 A2996 RMK A01 T02690111  RH  038%=      5-min Rain = 0
KASR 141710Z 20009G14KT 27/11 A2996 RMK A01 T02690112  RH  038%=      5-min Rain = 0
KASR 141715Z 19009KT 27/11 A2996 RMK A01 T02730114  RH  038%=      5-min Rain = 0
KASR 141720Z 21008KT 28/11 A2996 RMK A01 T02750114  RH  037%=      5-min Rain = 0
KASR 141725Z 22007G13KT 28/12 A2995 RMK A01 T02760115  RH  037%=      5-min Rain = 0
KASR 141730Z 20007KT 28/12 A2995 RMK A01 T02770116  RH  037%=      5-min Rain = 0
KASR 141735Z 20009KT 28/12 A2995 RMK A01 T02750116  RH  038%=      5-min Rain = 0
KASR 141740Z 20008KT 28/12 A2995 RMK A01 T02750116  RH  038%=      5-min Rain = 0
KASR 141745Z 18008KT 27/12 A2994 RMK A01 T02730117  RH  038%=      5-min Rain = 0
KASR 141750Z 20009KT 27/12 A2994 RMK A01 T02730117  RH  039%=      5-min Rain = 0
KASR 141755Z 20009G14KT 27/12 A2994 RMK A01 T02720116  RH  039%=      5-min Rain = 0
KASR 141800Z 19010KT 27/12 A2994 RMK A01 T02700115  RH  039%=      5-min Rain = 0
KASR 141805Z 18009KT 27/12 A2994 RMK A01 T02710117  RH  039%=      5-min Rain = 0
KASR 141810Z 19008KT 27/12 A2993 RMK A01 T02720119  RH  039%=      5-min Rain = 0
KASR 141815Z 19010KT 27/12 A2993 RMK A01 T02710116  RH  039%=      5-min Rain = 0
KASR 141820Z 19011KT 27/12 A2993 RMK A01 T02690116  RH  039%=      5-min Rain = 0
KASR 141825Z 19010KT 27/12 A2993 RMK A01 T02690115  RH  039%=      5-min Rain = 0
KASR 141830Z 19009KT 27/12 A2993 RMK A01 T02690116  RH  039%=      5-min Rain = 0
KASR 141835Z 20010KT 27/12 A2993 RMK A01 T02710115  RH  038%=      5-min Rain = 0
KASR 141840Z 20009KT 27/12 A2993 RMK A01 T02700115  RH  039%=      5-min Rain = 0
KASR 141845Z 20010G15KT 27/11 A2992 RMK A01 T02680113  RH  039%=      5-min Rain = 0
KASR 141850Z 20009KT 27/12 A2992 RMK A01 T02690115  RH  039%=      5-min Rain = 0
KASR 141855Z 20009KT 27/11 A2991 RMK A01 T02700113  RH  038%=      5-min Rain = 0
KASR 141900Z 18008G13KT 27/11 A2991 RMK A01 T02700114  RH  038%=      5-min Rain = 0
KASR 141905Z 19010KT 28/12 A2991 RMK A01 T02770116  RH  037%=      5-min Rain = 0
KASR 141910Z 19012KT 28/12 A2991 RMK A01 T02770115  RH  037%=      5-min Rain = 0
KASR 141915Z 19010KT 27/12 A2991 RMK A01 T02740115  RH  038%=      5-min Rain = 0
KASR 141920Z 19011KT 27/12 A2991 RMK A01 T02730115  RH  038%=      5-min Rain = 0
KASR 141925Z 19010G15KT 27/12 A299 RMK A01 T02740117  RH  038%=      5-min Rain = 0
KASR 141930Z 19009KT 28/12 A299 RMK A01 T02750118  RH  038%=      5-min Rain = 0
KASR 141935Z 21009KT 28/12 A299 RMK A01 T02780118  RH  038%=      5-min Rain = 0
KASR 141940Z 20010G16KT 28/12 A299 RMK A01 T02820119  RH  037%=      5-min Rain = 0
KASR 141945Z 21011KT 28/12 A299 RMK A01 T02790119  RH  038%=      5-min Rain = 0
KASR 141950Z 20011G18KT 28/12 A299 RMK A01 T02800120  RH  038%=      5-min Rain = 0
KASR 141955Z 21010KT 28/12 A2989 RMK A01 T02820122  RH  038%=      5-min Rain = 0
KASR 142000Z 20012KT 28/12 A2989 RMK A01 T02830124  RH  038%=      5-min Rain = 0
KASR 142005Z 20011KT 28/13 A2989 RMK A01 T02840125  RH  038%=      5-min Rain = 0
KASR 142010Z 20012KT 29/13 A2988 RMK A01 T02870128  RH  038%=      5-min Rain = 0
KASR 142015Z 20011KT 29/13 A2988 RMK A01 T02870128  RH  038%=      5-min Rain = 0
KASR 142020Z 20010KT 29/13 A2987 RMK A01 T02880132  RH  039%=      5-min Rain = 0
KASR 142025Z 20013G18KT 29/13 A2987 RMK A01 T02860130  RH  039%=      5-min Rain = 0
KASR 142030Z 19011KT 29/13 A2987 RMK A01 T02850131  RH  039%=      5-min Rain = 0
KASR 142035Z 20009KT 29/13 A2987 RMK A01 T02880131  RH  039%=      5-min Rain = 0
KASR 142040Z 20010KT 29/13 A2987 RMK A01 T02940132  RH  038%=      5-min Rain = 0
KASR 142045Z 22008G13KT 30/13 A2987 RMK A01 T03010129  RH  035%=      5-min Rain = 0
KASR 142050Z 22010G15KT 30/13 A2987 RMK A01 T02990131  RH  036%=      5-min Rain = 0
KASR 142055Z 21011G17KT 30/13 A2986 RMK A01 T02960131  RH  037%=      5-min Rain = 0
KASR 142100Z 21010G15KT 29/13 A2986 RMK A01 T02910132  RH  038%=      5-min Rain = 0
KASR 142105Z 22011KT 29/13 A2986 RMK A01 T02900133  RH  039%=      5-min Rain = 0
KASR 142110Z 20009G15KT 29/14 A2986 RMK A01 T02920137  RH  039%=      5-min Rain = 0
KASR 142115Z 20010G15KT 29/14 A2986 RMK A01 T02900137  RH  040%=      5-min Rain = 0
KASR 142120Z 20010KT 29/14 A2986 RMK A01 T02940138  RH  039%=      5-min Rain = 0
KASR 142125Z 20012KT 29/14 A2986 RMK A01 T02910137  RH  040%=      5-min Rain = 0
KASR 142130Z 21010KT 29/14 A2986 RMK A01 T02870137  RH  041%=      5-min Rain = 0
KASR 142135Z 20009KT 29/14 A2986 RMK A01 T02850137  RH  041%=      5-min Rain = 0
KASR 142140Z 22010G16KT 29/14 A2986 RMK A01 T02870137  RH  041%=      5-min Rain = 0
KASR 142145Z 22009G14KT 29/14 A2986 RMK A01 T02900138  RH  040%=      5-min Rain = 0
KASR 142150Z 20010KT 29/14 A2986 RMK A01 T02910142  RH  041%=      5-min Rain = 0
KASR 142155Z 21010KT 29/14 A2986 RMK A01 T02900142  RH  041%=      5-min Rain = 0
KASR 142200Z 20010KT 29/14 A2986 RMK A01 T02890142  RH  042%=      5-min Rain = 0
KASR 142205Z 21010G15KT 29/14 A2986 RMK A01 T02880142  RH  042%=      5-min Rain = 0
KASR 142210Z 20009KT 29/14 A2986 RMK A01 T02890143  RH  042%=      5-min Rain = 0
KASR 142215Z 20009KT 29/14 A2986 RMK A01 T02890143  RH  042%=      5-min Rain = 0
KASR 142220Z 20012KT 29/14 A2986 RMK A01 T02880143  RH  042%=      5-min Rain = 0
KASR 142225Z 20012G17KT 29/14 A2986 RMK A01 T02880141  RH  042%=      5-min Rain = 0
KASR 142230Z 21012G17KT 29/14 A2986 RMK A01 T02880141  RH  042%=      5-min Rain = 0
KASR 142235Z 20012KT 29/14 A2986 RMK A01 T02890141  RH  041%=      5-min Rain = 0
KASR 142240Z 19012KT 29/14 A2986 RMK A01 T02890142  RH  041%=      5-min Rain = 0
KASR 142245Z 20012G17KT 30/14 A2986 RMK A01 T02950143  RH  040%=      5-min Rain = 0
KASR 142250Z 20012KT 30/14 A2986 RMK A01 T02950144  RH  041%=      5-min Rain = 0
KASR 142255Z 18012KT 29/15 A2986 RMK A01 T02850147  RH  044%=      5-min Rain = 0
KASR 142300Z 18011G17KT 28/15 A2986 RMK A01 T02790147  RH  045%=      5-min Rain = 0
KASR 142305Z 19013KT 28/14 A2986 RMK A01 T02770144  RH  045%=      5-min Rain = 0
KASR 142310Z 20009G14KT 28/14 A2986 RMK A01 T02760144  RH  045%=      5-min Rain = 0
KASR 142315Z 20010G16KT 28/14 A2986 RMK A01 T02750144  RH  045%=      5-min Rain = 0
KASR 142320Z 19011KT 28/14 A2986 RMK A01 T02750143  RH  045%=      5-min Rain = 0
KASR 142325Z 18010KT 27/15 A2986 RMK A01 T02730146  RH  047%=      5-min Rain = 0
KASR 142330Z 18010G15KT 27/15 A2986 RMK A01 T02700148  RH  048%=      5-min Rain = 0
KASR 142335Z 18010KT 27/15 A2986 RMK A01 T02670147  RH  049%=      5-min Rain = 0
KASR 142340Z 18009KT 26/15 A2986 RMK A01 T02640147  RH  050%=      5-min Rain = 0
KASR 142345Z 17009KT 26/15 A2986 RMK A01 T02630150  RH  051%=      5-min Rain = 0
KASR 142350Z 18010KT 26/15 A2986 RMK A01 T02620151  RH  052%=      5-min Rain = 0
KASR 142355Z 18010KT 26/15 A2986 RMK A01 T02610152  RH  052%=      5-min Rain = 0
KASR 150000Z 17010KT 26/15 A2986 RMK A01 T02580152  RH  053%=      5-min Rain = 0
KASR 150005Z 17010KT 26/15 A2986 RMK A01 T02560152  RH  054%=      5-min Rain = 0
KASR 150010Z 18010KT 25/15 A2986 RMK A01 T02530152  RH  055%=      5-min Rain = 0
KASR 150015Z 18010KT 25/15 A2987 RMK A01 T02520152  RH  055%=      5-min Rain = 0
KASR 150020Z 18010KT 25/15 A2987 RMK A01 T02500153  RH  056%=      5-min Rain = 0
KASR 150025Z 18010KT 25/15 A2987 RMK A01 T02490154  RH  057%=      5-min Rain = 0
KASR 150030Z 18009KT 25/16 A2987 RMK A01 T02470155  RH  058%=      5-min Rain = 0
KASR 150035Z 17008KT 25/16 A2987 RMK A01 T02450155  RH  059%=      5-min Rain = 0
KASR 150040Z 17009KT 24/16 A2987 RMK A01 T02430156  RH  060%=      5-min Rain = 0
KASR 150045Z 17009KT 24/16 A2987 RMK A01 T02400156  RH  060%=      5-min Rain = 0
KASR 150050Z 17008KT 24/16 A2987 RMK A01 T02380156  RH  061%=      5-min Rain = 0
KASR 150055Z 17008KT 24/16 A2987 RMK A01 T02360156  RH  062%=      5-min Rain = 0
KASR 150100Z 17007KT 23/16 A2987 RMK A01 T02340157  RH  063%=      5-min Rain = 0
KASR 150105Z 17008KT 23/16 A2987 RMK A01 T02320157  RH  064%=      5-min Rain = 0
KASR 150110Z 17008KT 23/16 A2988 RMK A01 T02300157  RH  065%=      5-min Rain = 0
KASR 150115Z 17008KT 23/16 A2988 RMK A01 T02290157  RH  066%=      5-min Rain = 0
KASR 150120Z 17007KT 23/16 A2988 RMK A01 T02280157  RH  066%=      5-min Rain = 0
KASR 150125Z 17007KT 23/16 A2988 RMK A01 T02260157  RH  067%=      5-min Rain = 0
KASR 150130Z 17007KT 23/16 A2988 RMK A01 T02250157  RH  067%=      5-min Rain = 0
KASR 150135Z 18008KT 22/16 A2989 RMK A01 T02240157  RH  067%=      5-min Rain = 0
KASR 150140Z 18007KT 22/16 A2989 RMK A01 T02220157  RH  068%=      5-min Rain = 0
KASR 150145Z 18007KT 22/16 A2989 RMK A01 T02200156  RH  069%=      5-min Rain = 0
KASR 150150Z 18006KT 22/16 A2989 RMK A01 T02170155  RH  070%=      5-min Rain = 0
KASR 150155Z 17006KT 21/16 A2989 RMK A01 T02130155  RH  071%=      5-min Rain = 0
KASR 150200Z 17006KT 21/16 A2989 RMK A01 T02120155  RH  071%=      5-min Rain = 0
KASR 150205Z 17006KT 21/16 A299 RMK A01 T02130155  RH  071%=      5-min Rain = 0
KASR 150210Z 17007KT 21/16 A299 RMK A01 T02120156  RH  072%=      5-min Rain = 0
KASR 150215Z 17007KT 21/16 A299 RMK A01 T02120157  RH  072%=      5-min Rain = 0
KASR 150220Z 17007KT 21/16 A299 RMK A01 T02120158  RH  073%=      5-min Rain = 0
KASR 150225Z 17007KT 21/16 A299 RMK A01 T02100158  RH  074%=      5-min Rain = 0
KASR 150230Z 17007KT 21/16 A299 RMK A01 T02090159  RH  075%=      5-min Rain = 0
KASR 150235Z 17008KT 21/16 A299 RMK A01 T02080159  RH  075%=      5-min Rain = 0
KASR 150240Z 17008KT 21/16 A299 RMK A01 T02080160  RH  076%=      5-min Rain = 0
KASR 150245Z 16008KT 21/16 A299 RMK A01 T02090160  RH  075%=      5-min Rain = 0
KASR 150250Z 17008KT 21/16 A299 RMK A01 T02080160  RH  076%=      5-min Rain = 0
KASR 150255Z 17008KT 21/16 A299 RMK A01 T02080160  RH  076%=      5-min Rain = 0
KASR 150300Z 17008KT 21/16 A299 RMK A01 T02070160  RH  076%=      5-min Rain = 0
KASR 150305Z 17007KT 21/16 A2991 RMK A01 T02060160  RH  077%=      5-min Rain = 0
KASR 150310Z 16007KT 21/16 A2991 RMK A01 T02050160  RH  077%=      5-min Rain = 0
KASR 150315Z 17006KT 20/16 A2991 RMK A01 T02040160  RH  078%=      5-min Rain = 0
KASR 150320Z 17006KT 20/16 A2991 RMK A01 T02030160  RH  078%=      5-min Rain = 0
KASR 150325Z 17006KT 20/16 A2991 RMK A01 T02010160  RH  079%=      5-min Rain = 0
KASR 150330Z 17007KT 20/16 A2991 RMK A01 T02000160  RH  079%=      5-min Rain = 0
KASR 150335Z 17006KT 20/16 A2991 RMK A01 T02000160  RH  080%=      5-min Rain = 0
KASR 150340Z 17006KT 20/16 A2991 RMK A01 T01990160  RH  080%=      5-min Rain = 0
KASR 150345Z 17007KT 20/16 A2991 RMK A01 T01980160  RH  081%=      5-min Rain = 0
KASR 150350Z 17007KT 20/16 A2991 RMK A01 T01970160  RH  081%=      5-min Rain = 0
KASR 150355Z 16007KT 20/16 A2991 RMK A01 T01970161  RH  081%=      5-min Rain = 0
KASR 150400Z 17007KT 20/16 A2991 RMK A01 T01970161  RH  082%=      5-min Rain = 0
KASR 150405Z 17006KT 20/16 A2991 RMK A01 T01970162  RH  082%=      5-min Rain = 0
KASR 150410Z 17007KT 20/16 A2991 RMK A01 T01960162  RH  083%=      5-min Rain = 0
KASR 150415Z 17007KT 20/16 A2991 RMK A01 T01970163  RH  083%=      5-min Rain = 0
KASR 150420Z 17007KT 20/16 A2991 RMK A01 T01970163  RH  083%=      5-min Rain = 0
KASR 150425Z 18008KT 20/16 A2991 RMK A01 T01990164  RH  082%=      5-min Rain = 0
KASR 150430Z 18008KT 20/17 A2991 RMK A01 T02000165  RH  082%=      5-min Rain = 0
KASR 150435Z 18009KT 20/17 A2991 RMK A01 T02010165  RH  081%=      5-min Rain = 0
KASR 150440Z 17008KT 20/17 A2991 RMK A01 T02010165  RH  081%=      5-min Rain = 0
KASR 150445Z 17008KT 20/17 A2991 RMK A01 T02010165  RH  081%=      5-min Rain = 0
KASR 150450Z 17008KT 20/16 A2991 RMK A01 T02010164  RH  081%=      5-min Rain = 0
KASR 150455Z 17007KT 20/16 A2991 RMK A01 T02000164  RH  082%=      5-min Rain = 0

Page generated in 0.0087 seconds.